createdAt,value
2022-11-14T00:00:24.828Z,101578.94
2022-11-14T00:02:52.610Z,101570.09
2022-11-14T00:05:21.895Z,101571.97
2022-11-14T00:07:49.527Z,101566.91
2022-11-14T00:10:18.041Z,101567.75
2022-11-14T00:12:45.964Z,101582.69
2022-11-14T00:15:14.168Z,101573.97
2022-11-14T00:17:42.048Z,101572.19
2022-11-14T00:20:11.973Z,101567.06
2022-11-14T00:22:41.141Z,101563.69
2022-11-14T00:25:09.516Z,101563.69
2022-11-14T00:27:37.221Z,101555.03
2022-11-14T00:30:05.656Z,101559.47
2022-11-14T00:32:33.445Z,101552.41
2022-11-14T00:35:01.086Z,101553.34
2022-11-14T00:37:28.723Z,101545.44
2022-11-14T00:39:57.700Z,101538.56
2022-11-14T00:42:25.370Z,101536.97
2022-11-14T00:44:52.986Z,101535.16
2022-11-14T00:47:20.706Z,101539.59
2022-11-14T00:49:48.327Z,101511.84
2022-11-14T00:52:15.950Z,101528.31
2022-11-14T00:54:43.608Z,101521.38
2022-11-14T00:57:12.675Z,101518.72
2022-11-14T00:59:40.294Z,101510.16
2022-11-14T01:02:08.083Z,101507.50
2022-11-14T01:04:35.817Z,101503.19
2022-11-14T01:07:03.482Z,101481.09
2022-11-14T01:09:31.217Z,101494.53
2022-11-14T01:11:58.961Z,101490.22
2022-11-14T01:14:28.010Z,101487.66
2022-11-14T01:16:55.812Z,101484.19
2022-11-14T01:19:23.463Z,101475.44
2022-11-14T01:21:51.077Z,101473.75
2022-11-14T01:24:18.701Z,101473.94
2022-11-14T01:26:46.328Z,101474.09
2022-11-14T01:29:13.970Z,101459.53
2022-11-14T01:31:42.970Z,101469.03
2022-11-14T01:34:10.918Z,101466.31
2022-11-14T01:36:38.543Z,101467.16
2022-11-14T01:39:06.238Z,101466.41
2022-11-14T01:41:33.926Z,101465.56
2022-11-14T01:44:01.491Z,101465.56
2022-11-14T01:46:31.693Z,101452.84
2022-11-14T01:49:03.515Z,101456.06
2022-11-14T01:51:35.778Z,101458.59
2022-11-14T01:54:05.398Z,101449.97
2022-11-14T01:56:35.110Z,101442.06
2022-11-14T01:59:06.525Z,101441.19
2022-11-14T02:01:37.539Z,101437.81
2022-11-14T02:04:11.630Z,101438.75
2022-11-14T02:06:41.995Z,101436.13
2022-11-14T02:09:09.572Z,101421.38
2022-11-14T02:11:39.418Z,101423.16
2022-11-14T02:14:07.401Z,101413.56
2022-11-14T02:16:35.347Z,101407.44
2022-11-14T02:19:03.036Z,101403.22
2022-11-14T02:21:32.147Z,101404.91
2022-11-14T02:23:59.815Z,101412.06
2022-11-14T02:26:27.504Z,101406.97
2022-11-14T02:28:56.416Z,101409.69
2022-11-14T02:31:24.078Z,101404.50
2022-11-14T02:33:51.705Z,101398.50
2022-11-14T02:36:19.363Z,101395.88
2022-11-14T02:38:48.479Z,101397.56
2022-11-14T02:41:16.177Z,101392.41
2022-11-14T02:43:43.908Z,101383.75
2022-11-14T02:46:11.713Z,101389.19
2022-11-14T02:48:39.349Z,101382.22
2022-11-14T02:51:07.479Z,101381.47
2022-11-14T02:53:35.179Z,101378.84
2022-11-14T02:56:04.304Z,101369.34
2022-11-14T02:58:32.173Z,101376.47
2022-11-14T03:01:19.556Z,101366.16
2022-11-14T03:03:47.751Z,101362.84
2022-11-14T03:06:15.454Z,101366.16
2022-11-14T03:08:43.232Z,101361.84
2022-11-14T03:11:12.285Z,101356.63
2022-11-14T03:13:39.916Z,101359.19
2022-11-14T03:16:08.455Z,101365.41
2022-11-14T03:18:36.751Z,101364.47
2022-11-14T03:21:08.031Z,101354.94
2022-11-14T03:23:35.728Z,101353.16
2022-11-14T03:26:03.953Z,101350.53
2022-11-14T03:28:33.308Z,101352.41
2022-11-14T03:31:00.941Z,101352.41
2022-11-14T03:33:28.641Z,101346.31
2022-11-14T03:35:56.301Z,101357.75
2022-11-14T03:38:23.947Z,101353.44
2022-11-14T03:40:51.639Z,101349.13
2022-11-14T03:43:20.784Z,101356.19
2022-11-14T03:45:49.887Z,101353.59
2022-11-14T03:48:17.689Z,101348.34
2022-11-14T03:50:45.577Z,101351.88
2022-11-14T03:53:13.199Z,101352.06
2022-11-14T03:55:40.773Z,101356.38
2022-11-14T03:58:08.408Z,101352.16
2022-11-14T04:00:36.098Z,101349.59
2022-11-14T04:03:05.280Z,101349.69
2022-11-14T04:05:33.000Z,101339.19
2022-11-14T04:08:00.646Z,101335.91
2022-11-14T04:10:28.236Z,101322.84
2022-11-14T04:12:55.919Z,101315.66
2022-11-14T04:15:23.480Z,101323.00
2022-11-14T04:17:51.102Z,101313.44
2022-11-14T04:20:20.608Z,101323.19
2022-11-14T04:22:48.267Z,101325.00
2022-11-14T04:25:16.068Z,101312.84
2022-11-14T04:27:44.462Z,101316.41
2022-11-14T04:30:12.939Z,101307.03
2022-11-14T04:32:40.593Z,101315.66
2022-11-14T04:35:08.800Z,101313.13
2022-11-14T04:37:39.268Z,101306.44
2022-11-14T04:40:08.443Z,101315.16
2022-11-14T04:42:36.076Z,101311.69
2022-11-14T04:45:03.870Z,101314.31
2022-11-14T04:47:31.930Z,101316.00
2022-11-14T04:49:59.656Z,101316.00
2022-11-14T04:52:27.768Z,101300.34
2022-11-14T04:54:57.096Z,101304.75
2022-11-14T04:57:24.755Z,101305.69
2022-11-14T04:59:52.405Z,101298.66
2022-11-14T05:02:20.043Z,101297.81
2022-11-14T05:04:48.426Z,101297.81
2022-11-14T05:07:16.334Z,101295.28
2022-11-14T05:09:44.014Z,101290.94
2022-11-14T05:12:13.053Z,101289.19
2022-11-14T05:14:40.664Z,101290.09
2022-11-14T05:17:08.291Z,101285.75
2022-11-14T05:19:35.963Z,101288.41
2022-11-14T05:22:03.594Z,101283.31
2022-11-14T05:24:31.230Z,101287.66
2022-11-14T05:27:00.111Z,101283.31
2022-11-14T05:29:29.161Z,101280.69
2022-11-14T05:31:57.776Z,101272.72
2022-11-14T05:34:25.493Z,101276.28
2022-11-14T05:36:53.164Z,101270.19
2022-11-14T05:39:20.864Z,101270.34
2022-11-14T05:41:48.506Z,101277.22
2022-11-14T05:44:16.144Z,101269.44
2022-11-14T05:46:45.196Z,101278.22
2022-11-14T05:49:13.707Z,101269.44
2022-11-14T05:51:43.486Z,101272.97
2022-11-14T05:54:11.128Z,101276.53
2022-11-14T05:56:38.771Z,101272.97
2022-11-14T05:59:06.516Z,101264.44
2022-11-14T06:01:34.266Z,101268.66
2022-11-14T06:04:07.156Z,101263.78
2022-11-14T06:06:34.809Z,101268.09
2022-11-14T06:09:02.537Z,101261.91
2022-11-14T06:11:30.136Z,101262.84
2022-11-14T06:13:57.773Z,101258.53
2022-11-14T06:16:25.594Z,101252.50
2022-11-14T06:18:54.291Z,101249.03
2022-11-14T06:21:25.109Z,101247.25
2022-11-14T06:23:52.815Z,101258.78
2022-11-14T06:26:22.642Z,101256.25
2022-11-14T06:28:50.446Z,101266.75
2022-11-14T06:31:18.846Z,101270.31
2022-11-14T06:33:46.974Z,101266.91
2022-11-14T06:36:14.953Z,101268.63
2022-11-14T06:38:44.597Z,101266.91
2022-11-14T06:41:13.461Z,101279.13
2022-11-14T06:43:42.629Z,101269.47
2022-11-14T06:46:12.680Z,101272.16
2022-11-14T06:48:40.612Z,101270.31
2022-11-14T06:51:08.559Z,101259.88
2022-11-14T06:53:37.044Z,101257.25
2022-11-14T06:56:07.610Z,101263.44
2022-11-14T06:58:36.846Z,101268.63
2022-11-14T07:01:06.321Z,101260.16
2022-11-14T07:03:34.327Z,101264.28
2022-11-14T07:06:02.093Z,101266.06
2022-11-14T07:08:29.965Z,101269.63
2022-11-14T07:11:02.501Z,101263.53
2022-11-14T07:13:32.584Z,101261.09
2022-11-14T07:16:00.568Z,101263.53
2022-11-14T07:18:28.939Z,101285.38
2022-11-14T07:21:01.152Z,101270.47
2022-11-14T07:23:29.488Z,101266.91
2022-11-14T07:25:57.090Z,101277.41
2022-11-14T07:28:24.722Z,101278.25
2022-11-14T07:30:53.731Z,101272.00
2022-11-14T07:33:21.411Z,101262.50
2022-11-14T07:35:49.504Z,101259.81
2022-11-14T07:38:17.532Z,101259.63
2022-11-14T07:40:59.087Z,101251.75
2022-11-14T07:43:28.165Z,101252.50
2022-11-14T07:46:00.100Z,101248.88
2022-11-14T07:48:28.559Z,101254.88
2022-11-14T07:51:00.281Z,101254.03
2022-11-14T07:53:28.317Z,101252.06
2022-11-14T07:55:55.964Z,101240.53
2022-11-14T07:58:23.826Z,101229.09
2022-11-14T08:00:51.545Z,101239.59
2022-11-14T08:03:20.665Z,101237.72
2022-11-14T08:05:48.372Z,101245.41
2022-11-14T08:08:16.073Z,101244.41
2022-11-14T08:10:43.868Z,101241.59
2022-11-14T08:16:00.201Z,101245.66
2022-11-14T08:18:29.547Z,101233.25
2022-11-14T08:20:57.643Z,101227.84
2022-11-14T08:23:25.402Z,101232.16
2022-11-14T08:25:53.443Z,101232.06
2022-11-14T08:28:21.128Z,101228.41
2022-11-14T08:30:48.979Z,101222.41
2022-11-14T08:33:16.767Z,101232.56
2022-11-14T08:35:45.836Z,101231.63
2022-11-14T08:38:13.584Z,101226.47
2022-11-14T08:40:41.217Z,101232.38
2022-11-14T08:43:11.187Z,101225.22
2022-11-14T08:45:38.868Z,101230.31
2022-11-14T08:48:07.125Z,101227.78
2022-11-14T08:50:34.877Z,101234.63
2022-11-14T08:53:03.935Z,101234.41
2022-11-14T08:55:31.970Z,101235.91
2022-11-14T08:57:59.703Z,101236.56
2022-11-14T09:00:27.562Z,101230.28
2022-11-14T09:02:55.319Z,101223.81
2022-11-14T09:05:23.064Z,101220.03
2022-11-14T09:07:50.724Z,101219.66
2022-11-14T09:10:19.711Z,101210.63
2022-11-14T09:12:47.332Z,101212.16
2022-11-14T09:15:14.976Z,101204.16
2022-11-14T09:17:42.633Z,101202.28
2022-11-14T09:20:10.730Z,101208.00
2022-11-14T09:22:38.467Z,101204.63
2022-11-14T09:25:06.935Z,101205.09
2022-11-14T09:27:35.955Z,101204.88
2022-11-14T09:30:03.721Z,101221.34
2022-11-14T09:32:31.419Z,101214.00
2022-11-14T09:34:59.028Z,101206.75
2022-11-14T09:37:27.535Z,101192.56
2022-11-14T09:39:55.243Z,101193.13
2022-11-14T09:42:51.176Z,101196.59
2022-11-14T09:45:19.003Z,101205.06
2022-11-14T09:47:49.522Z,101205.91
2022-11-14T09:50:24.423Z,101216.88
2022-11-14T09:52:55.987Z,101214.69
2022-11-14T09:55:24.676Z,101216.19
2022-11-14T09:57:53.670Z,101211.50
2022-11-14T10:00:22.881Z,101210.22
2022-11-14T10:03:03.063Z,101209.00
2022-11-14T10:05:40.986Z,101206.91
2022-11-14T10:08:18.226Z,101204.81
2022-11-14T10:10:52.597Z,101200.81
2022-11-14T10:13:35.778Z,101199.59
2022-11-14T10:16:07.563Z,101193.06
2022-11-14T10:18:44.418Z,101170.19
2022-11-14T10:21:25.428Z,101180.66
2022-11-14T10:23:57.739Z,101173.94
2022-11-14T10:26:34.104Z,101159.81
2022-11-14T10:29:25.699Z,101157.59
2022-11-14T10:31:57.216Z,101166.03
2022-11-14T10:34:29.303Z,101155.38
2022-11-14T10:37:03.649Z,101153.25
2022-11-14T10:39:36.467Z,101144.63
2022-11-14T10:42:11.252Z,101145.91
2022-11-14T10:44:46.679Z,101138.53
2022-11-14T10:47:16.284Z,101137.16
2022-11-14T10:49:47.801Z,101118.72
2022-11-14T10:52:17.988Z,101127.66
2022-11-14T10:54:47.760Z,101129.03
2022-11-14T10:57:17.869Z,101130.47
2022-11-14T10:59:47.404Z,101121.41
2022-11-14T11:02:15.511Z,101108.00
2022-11-14T11:04:44.092Z,101121.34
2022-11-14T11:07:39.334Z,101127.16
2022-11-14T11:11:33.609Z,101122.28
2022-11-14T11:14:02.343Z,101114.97
2022-11-14T11:16:30.376Z,101118.84
2022-11-14T11:19:15.023Z,101117.59
2022-11-14T11:21:50.383Z,101109.44
2022-11-14T11:24:32.300Z,101106.47
2022-11-14T11:27:23.692Z,101106.13
2022-11-14T11:30:13.203Z,101112.53
2022-11-14T11:32:40.775Z,101105.84
2022-11-14T11:35:13.325Z,101095.75
2022-11-14T11:37:45.016Z,101088.59
2022-11-14T11:40:18.653Z,101080.19
2022-11-14T11:43:36.610Z,101089.31
2022-11-14T11:45:41.014Z,101088.88
2022-11-14T11:48:16.238Z,101085.06
2022-11-14T11:50:43.998Z,101070.75
2022-11-14T11:53:18.492Z,101069.78
2022-11-14T11:55:47.807Z,101070.41
2022-11-14T11:58:22.194Z,101074.03
2022-11-14T12:02:21.520Z,101060.31
2022-11-14T12:04:51.122Z,101074.50
2022-11-14T12:07:20.502Z,101068.56
2022-11-14T12:10:09.944Z,101054.06
2022-11-14T12:12:52.999Z,101054.50
2022-11-14T12:15:25.626Z,101054.50
2022-11-14T12:18:21.762Z,101056.41
2022-11-14T12:20:55.862Z,101048.84
2022-11-14T12:23:53.107Z,101031.44
2022-11-14T12:26:33.952Z,101030.94
2022-11-14T12:29:13.345Z,101023.97
2022-11-14T12:32:31.267Z,101018.91
2022-11-14T12:35:00.222Z,101018.19
2022-11-14T12:37:32.621Z,101018.44
2022-11-14T12:40:01.965Z,101021.06
2022-11-14T12:42:29.669Z,101028.88
2022-11-14T12:44:57.342Z,101016.63
2022-11-14T12:47:25.887Z,101022.03
2022-11-14T12:50:23.561Z,100993.19
2022-11-14T12:52:53.930Z,101007.50
2022-11-14T12:55:53.975Z,101010.03
2022-11-14T12:58:29.428Z,101004.75
2022-11-14T13:01:05.913Z,101006.78
2022-11-14T13:03:42.770Z,101009.66
2022-11-14T13:07:34.361Z,101009.28
2022-11-14T13:10:14.957Z,100998.94
2022-11-14T13:13:00.826Z,100993.56
2022-11-14T13:15:49.972Z,100988.50
2022-11-14T13:18:40.148Z,100977.81
2022-11-14T13:21:38.603Z,100974.00
2022-11-14T13:24:10.580Z,100961.31
2022-11-14T13:26:49.117Z,100955.06
2022-11-14T13:29:59.888Z,100965.63
2022-11-14T13:33:05.005Z,100965.13
2022-11-14T13:36:02.144Z,100966.91
2022-11-14T13:39:14.828Z,100986.56
2022-11-14T13:45:31.589Z,100988.50
2022-11-14T13:48:47.466Z,100976.97
2022-11-14T13:51:41.601Z,100980.94
2022-11-14T13:54:17.174Z,100973.94
2022-11-14T13:56:55.480Z,100969.63
2022-11-14T13:59:39.341Z,100967.94
2022-11-14T14:02:55.289Z,100965.31
2022-11-14T14:05:31.190Z,100960.41
2022-11-14T14:08:14.474Z,100966.28
2022-11-14T14:10:44.252Z,100960.16
2022-11-14T14:13:19.549Z,100957.38
2022-11-14T14:15:50.527Z,100961.00
2022-11-14T14:18:26.556Z,100964.34
2022-11-14T14:20:59.647Z,100958.84
2022-11-14T14:25:49.863Z,100953.78
2022-11-14T14:28:22.763Z,100962.22
2022-11-14T14:31:09.683Z,100964.84
2022-11-14T14:33:42.341Z,100956.81
2022-11-14T14:38:00.693Z,100956.69
2022-11-14T14:40:30.000Z,100958.63
2022-11-14T14:43:53.119Z,100954.41
2022-11-14T14:46:29.713Z,100952.38
2022-11-14T14:48:57.932Z,100943.72
2022-11-14T14:51:33.040Z,100937.50
2022-11-14T14:54:00.993Z,100941.81
2022-11-14T14:56:29.898Z,100930.53
2022-11-14T14:58:58.928Z,100924.41
2022-11-14T15:01:32.665Z,100916.63
2022-11-14T15:04:04.369Z,100926.34
2022-11-14T15:06:34.068Z,100916.38
2022-11-14T15:09:04.811Z,100917.09
2022-11-14T15:11:33.133Z,100909.28
2022-11-14T15:14:02.998Z,100909.16
2022-11-14T15:16:30.912Z,100902.00
2022-11-14T15:18:59.351Z,100903.66
2022-11-14T15:21:28.737Z,100907.28
2022-11-14T15:24:01.437Z,100903.66
2022-11-14T15:26:30.645Z,100905.34
2022-11-14T15:29:08.956Z,100914.34
2022-11-14T15:31:37.879Z,100912.78
2022-11-14T15:34:07.415Z,100917.09
2022-11-14T15:36:35.359Z,100916.13
2022-11-14T15:39:05.837Z,100921.41
2022-11-14T15:46:06.052Z,100904.72
2022-11-14T15:48:33.700Z,100901.16
2022-11-14T15:52:59.085Z,100892.38
2022-11-14T15:55:27.650Z,100884.34
2022-11-14T15:58:13.708Z,100885.91
2022-11-14T16:00:57.093Z,100886.16
2022-11-14T16:05:20.794Z,100884.22
2022-11-14T16:07:48.724Z,100882.53
2022-11-14T16:12:16.033Z,100888.03
2022-11-14T16:14:43.807Z,100881.09
2022-11-14T16:17:15.056Z,100893.09
2022-11-14T16:19:42.935Z,100879.16
2022-11-14T16:23:00.268Z,100888.16
2022-11-14T16:26:39.628Z,100895.00
2022-11-14T16:29:07.805Z,100887.81
2022-11-14T16:31:35.510Z,100895.75
2022-11-14T16:34:03.165Z,100901.03
2022-11-14T16:36:31.394Z,100896.72
2022-11-14T16:39:00.628Z,100884.22
2022-11-14T16:41:28.785Z,100877.28
2022-11-14T16:43:58.284Z,100887.81
2022-11-14T16:46:25.999Z,100885.19
2022-11-14T16:48:53.651Z,100880.63
2022-11-14T16:51:47.157Z,100877.84
2022-11-14T16:54:10.768Z,100877.72
2022-11-14T16:56:38.405Z,100870.66
2022-11-14T16:59:07.875Z,100866.25
2022-11-14T17:01:35.641Z,100861.78
2022-11-14T17:04:03.358Z,100862.63
2022-11-14T17:06:31.021Z,100853.75
2022-11-14T17:08:59.397Z,100853.75
2022-11-14T17:11:27.938Z,100844.88
2022-11-14T17:13:55.775Z,100842.94
2022-11-14T17:16:25.234Z,100848.22
2022-11-14T17:18:54.038Z,100848.09
2022-11-14T17:21:22.189Z,100845.44
2022-11-14T17:23:54.686Z,100836.69
2022-11-14T17:26:22.395Z,100836.81
2022-11-14T17:28:50.021Z,100844.59
2022-11-14T17:31:17.656Z,100829.72
2022-11-14T17:33:51.791Z,100838.50
2022-11-14T17:36:19.820Z,100834.19
2022-11-14T17:38:47.501Z,100832.38
2022-11-14T17:41:15.338Z,100834.19
2022-11-14T17:43:43.273Z,100833.47
2022-11-14T17:46:15.949Z,100830.69
2022-11-14T17:48:45.859Z,100827.09
2022-11-14T17:51:14.926Z,100822.78
2022-11-14T17:53:43.485Z,100825.66
2022-11-14T17:56:18.136Z,100815.94
2022-11-14T17:58:46.545Z,100819.41
2022-11-14T18:01:16.331Z,100815.19
2022-11-14T18:03:44.023Z,100808.16
2022-11-14T18:06:14.196Z,100805.00
2022-11-14T18:08:41.912Z,100816.91
2022-11-14T18:12:38.732Z,100819.41
2022-11-14T18:15:07.516Z,100816.66
2022-11-14T18:17:35.240Z,100803.81
2022-11-14T18:20:03.153Z,100816.53
2022-11-14T18:22:31.819Z,100814.84
2022-11-14T18:25:04.874Z,100803.56
2022-11-14T18:27:35.634Z,100806.22
2022-11-14T18:30:26.762Z,100813.31
2022-11-14T18:32:53.485Z,100804.53
2022-11-14T18:35:21.215Z,100808.16
2022-11-14T18:37:48.946Z,100810.88
2022-11-14T18:40:17.065Z,100807.41
2022-11-14T18:42:44.786Z,100810.03
2022-11-14T18:45:13.800Z,100802.88
2022-11-14T18:47:41.527Z,100795.78
2022-11-14T18:50:09.781Z,100792.31
2022-11-14T18:53:36.334Z,100799.47
2022-11-14T18:56:05.424Z,100802.00
2022-11-14T18:58:33.184Z,100802.13
2022-11-14T19:01:09.645Z,100799.97
2022-11-14T19:03:37.400Z,100795.88
2022-11-14T19:06:05.417Z,100795.88
2022-11-14T19:08:33.174Z,100799.47
2022-11-14T19:11:06.392Z,100798.66
2022-11-14T19:13:34.634Z,100797.81
2022-11-14T19:16:03.018Z,100790.00
2022-11-14T19:18:31.389Z,100792.78
2022-11-14T19:20:59.862Z,100796.38
2022-11-14T19:23:27.941Z,100795.53
2022-11-14T19:25:59.644Z,100792.78
2022-11-14T19:28:30.278Z,100802.13
2022-11-14T19:31:01.893Z,100803.09
2022-11-14T19:33:29.780Z,100803.09
2022-11-14T19:35:57.848Z,100803.09
2022-11-14T19:38:26.126Z,100795.28
2022-11-14T19:40:53.762Z,100790.00
2022-11-14T19:43:21.751Z,100806.56
2022-11-14T19:45:50.793Z,100792.78
2022-11-14T19:48:18.498Z,100799.75
2022-11-14T19:50:46.147Z,100808.63
2022-11-14T19:53:13.748Z,100803.47
2022-11-14T19:55:41.398Z,100803.69
2022-11-14T19:58:09.038Z,100806.09
2022-11-14T20:00:36.628Z,100805.97
2022-11-14T20:03:05.712Z,100799.03
2022-11-14T20:05:33.516Z,100799.13
2022-11-14T20:08:01.062Z,100793.00
2022-11-14T20:10:28.767Z,100787.97
2022-11-14T20:12:56.400Z,100790.38
2022-11-14T20:15:24.045Z,100787.84
2022-11-14T20:17:51.663Z,100794.94
2022-11-14T20:20:20.793Z,100792.41
2022-11-14T20:22:48.518Z,100793.25
2022-11-14T20:25:17.016Z,100789.91
2022-11-14T20:27:44.649Z,100784.63
2022-11-14T20:30:13.122Z,100783.78
2022-11-14T20:32:40.792Z,100791.59
2022-11-14T20:35:08.828Z,100789.66
2022-11-14T20:37:37.852Z,100788.81
2022-11-14T20:40:06.483Z,100789.06
2022-11-14T20:42:34.155Z,100785.59
2022-11-14T20:45:01.843Z,100789.91
2022-11-14T20:47:39.676Z,100788.81
2022-11-14T20:51:07.856Z,100786.88
2022-11-14T20:55:40.174Z,100778.97
2022-11-14T20:58:07.907Z,100780.53
2022-11-14T21:00:35.593Z,100781.47
2022-11-14T21:03:03.305Z,100786.03
2022-11-14T21:05:31.093Z,100786.03
2022-11-14T21:07:58.768Z,100791.59
2022-11-14T21:10:43.834Z,100791.94
2022-11-14T21:13:30.931Z,100786.06
2022-11-14T21:15:58.842Z,100793.13
2022-11-14T21:18:26.563Z,100785.22
2022-11-14T21:21:02.132Z,100785.91
2022-11-14T21:23:29.812Z,100776.22
2022-11-14T21:26:06.808Z,100781.50
2022-11-14T21:28:36.840Z,100773.59
2022-11-14T21:31:14.988Z,100783.28
2022-11-14T21:33:42.710Z,100786.03
2022-11-14T21:36:42.830Z,100776.44
2022-11-14T21:38:59.224Z,100775.72
2022-11-14T21:41:28.249Z,100783.78
2022-11-14T21:43:58.389Z,100780.38
2022-11-14T21:46:26.540Z,100784.00
2022-11-14T21:48:55.599Z,100780.63
2022-11-14T21:51:24.457Z,100767.56
2022-11-14T21:53:55.048Z,100772.84
2022-11-14T21:56:24.140Z,100788.91
2022-11-14T21:59:12.653Z,100775.00
2022-11-14T22:02:00.535Z,100781.34
2022-11-14T22:04:28.598Z,100777.13
2022-11-14T22:06:56.623Z,100777.50
2022-11-14T22:09:24.730Z,100768.88
2022-11-14T22:11:52.401Z,100771.59
2022-11-14T22:14:20.039Z,100763.34
2022-11-14T22:16:49.165Z,100769.47
2022-11-14T22:19:16.912Z,100769.66
2022-11-14T22:21:44.647Z,100766.31
2022-11-14T22:24:12.245Z,100774.47
2022-11-14T22:26:41.349Z,100770.13
2022-11-14T22:29:09.646Z,100766.78
2022-11-14T22:31:38.215Z,100781.88
2022-11-14T22:34:07.967Z,100772.63
2022-11-14T22:36:36.714Z,100773.59
2022-11-14T22:39:05.460Z,100764.19
2022-11-14T22:41:34.162Z,100764.59
2022-11-14T22:44:02.225Z,100770.44
2022-11-14T22:46:30.191Z,100759.91
2022-11-14T22:48:58.186Z,100755.47
2022-11-14T22:51:28.670Z,100756.44
2022-11-14T22:53:57.618Z,100754.63
2022-11-14T22:56:26.896Z,100755.38
2022-11-14T22:58:55.097Z,100750.81
2022-11-14T23:01:24.259Z,100758.84
2022-11-14T23:03:55.206Z,100752.50
2022-11-14T23:06:23.821Z,100749.75
2022-11-14T23:08:53.213Z,100752.38
2022-11-14T23:11:23.023Z,100749.75
2022-11-14T23:13:52.770Z,100765.34
2022-11-14T23:16:21.638Z,100765.22
2022-11-14T23:18:51.045Z,100754.81
2022-11-14T23:21:20.189Z,100756.22
2022-11-14T23:23:48.074Z,100751.19
2022-11-14T23:26:18.917Z,100743.16
2022-11-14T23:28:46.691Z,100740.28
2022-11-14T23:31:19.449Z,100743.75
2022-11-14T23:33:47.290Z,100736.81
2022-11-14T23:36:15.398Z,100742.91
2022-11-14T23:38:43.246Z,100731.53
2022-11-14T23:41:15.680Z,100735.75
2022-11-14T23:43:44.714Z,100744.38
2022-11-14T23:46:12.429Z,100736.34
2022-11-14T23:48:40.066Z,100739.69
2022-11-14T23:51:08.213Z,100738.03
2022-11-14T23:53:35.906Z,100731.06
2022-11-14T23:56:03.950Z,100737.91
2022-11-14T23:58:31.807Z,100731.69
